sensor_id;sensor_type;location;lat;lon;timestamp;P1;durP1;ratioP1;P2;durP2;ratioP2
18162;SDS011;9206;50.994;4.538;2022-11-15T00:03:04;24.73;;;16.73;;
18162;SDS011;9206;50.994;4.538;2022-11-15T00:06:00;20.63;;;15.63;;
18162;SDS011;9206;50.994;4.538;2022-11-15T00:08:57;23.97;;;15.93;;
18162;SDS011;9206;50.994;4.538;2022-11-15T00:11:46;28.00;;;16.80;;
18162;SDS011;9206;50.994;4.538;2022-11-15T00:14:44;23.27;;;15.60;;
18162;SDS011;9206;50.994;4.538;2022-11-15T00:17:34;20.73;;;15.67;;
18162;SDS011;9206;50.994;4.538;2022-11-15T00:20:23;24.10;;;16.33;;
18162;SDS011;9206;50.994;4.538;2022-11-15T00:23:16;23.67;;;15.33;;
18162;SDS011;9206;50.994;4.538;2022-11-15T00:26:07;22.70;;;16.10;;
18162;SDS011;9206;50.994;4.538;2022-11-15T00:28:58;24.53;;;15.97;;
18162;SDS011;9206;50.994;4.538;2022-11-15T00:31:55;19.70;;;16.40;;
18162;SDS011;9206;50.994;4.538;2022-11-15T00:34:50;23.27;;;16.43;;
18162;SDS011;9206;50.994;4.538;2022-11-15T00:40:49;21.83;;;16.10;;
18162;SDS011;9206;50.994;4.538;2022-11-15T00:43:42;20.63;;;16.33;;
18162;SDS011;9206;50.994;4.538;2022-11-15T00:46:30;21.00;;;16.07;;
18162;SDS011;9206;50.994;4.538;2022-11-15T00:49:17;20.67;;;16.10;;
18162;SDS011;9206;50.994;4.538;2022-11-15T00:52:06;28.57;;;16.40;;
18162;SDS011;9206;50.994;4.538;2022-11-15T00:55:02;28.60;;;16.40;;
18162;SDS011;9206;50.994;4.538;2022-11-15T00:57:55;22.63;;;16.53;;
18162;SDS011;9206;50.994;4.538;2022-11-15T01:00:49;26.00;;;16.07;;
18162;SDS011;9206;50.994;4.538;2022-11-15T01:03:42;21.90;;;16.17;;
18162;SDS011;9206;50.994;4.538;2022-11-15T01:06:30;22.30;;;16.30;;
18162;SDS011;9206;50.994;4.538;2022-11-15T01:09:18;19.63;;;15.50;;
18162;SDS011;9206;50.994;4.538;2022-11-15T01:12:11;24.50;;;16.93;;
18162;SDS011;9206;50.994;4.538;2022-11-15T01:14:59;23.33;;;16.23;;
18162;SDS011;9206;50.994;4.538;2022-11-15T01:17:47;20.63;;;15.83;;
18162;SDS011;9206;50.994;4.538;2022-11-15T01:20:40;19.77;;;16.33;;
18162;SDS011;9206;50.994;4.538;2022-11-15T01:23:28;24.23;;;16.83;;
18162;SDS011;9206;50.994;4.538;2022-11-15T01:26:24;20.40;;;16.10;;
18162;SDS011;9206;50.994;4.538;2022-11-15T01:29:26;20.57;;;15.63;;
18162;SDS011;9206;50.994;4.538;2022-11-15T01:32:19;23.17;;;14.87;;
18162;SDS011;9206;50.994;4.538;2022-11-15T01:35:12;24.70;;;15.23;;
18162;SDS011;9206;50.994;4.538;2022-11-15T01:38:00;19.77;;;16.10;;
18162;SDS011;9206;50.994;4.538;2022-11-15T01:40:47;20.80;;;15.87;;
18162;SDS011;9206;50.994;4.538;2022-11-15T01:43:37;25.83;;;16.73;;
18162;SDS011;9206;50.994;4.538;2022-11-15T01:46:27;23.20;;;15.90;;
18162;SDS011;9206;50.994;4.538;2022-11-15T01:49:18;20.00;;;16.57;;
18162;SDS011;9206;50.994;4.538;2022-11-15T01:52:09;23.13;;;16.13;;
18162;SDS011;9206;50.994;4.538;2022-11-15T01:55:02;20.53;;;16.13;;
18162;SDS011;9206;50.994;4.538;2022-11-15T01:57:53;20.47;;;15.70;;
18162;SDS011;9206;50.994;4.538;2022-11-15T02:00:45;19.27;;;15.13;;
18162;SDS011;9206;50.994;4.538;2022-11-15T02:03:36;22.50;;;14.93;;
18162;SDS011;9206;50.994;4.538;2022-11-15T02:06:29;23.10;;;14.57;;
18162;SDS011;9206;50.994;4.538;2022-11-15T02:09:17;18.77;;;14.90;;
18162;SDS011;9206;50.994;4.538;2022-11-15T02:12:05;26.10;;;14.57;;
18162;SDS011;9206;50.994;4.538;2022-11-15T02:14:54;14.97;;;13.00;;
18162;SDS011;9206;50.994;4.538;2022-11-15T02:17:48;16.27;;;13.93;;
18162;SDS011;9206;50.994;4.538;2022-11-15T02:20:52;17.07;;;12.97;;
18162;SDS011;9206;50.994;4.538;2022-11-15T02:27:30;18.40;;;13.00;;
18162;SDS011;9206;50.994;4.538;2022-11-15T02:30:39;17.50;;;11.87;;
18162;SDS011;9206;50.994;4.538;2022-11-15T02:33:36;16.00;;;12.33;;
18162;SDS011;9206;50.994;4.538;2022-11-15T02:39:26;15.53;;;12.20;;
18162;SDS011;9206;50.994;4.538;2022-11-15T02:42:21;16.43;;;11.90;;
18162;SDS011;9206;50.994;4.538;2022-11-15T02:45:31;13.63;;;11.47;;
18162;SDS011;9206;50.994;4.538;2022-11-15T02:48:24;20.30;;;12.23;;
18162;SDS011;9206;50.994;4.538;2022-11-15T02:51:14;16.23;;;11.63;;
18162;SDS011;9206;50.994;4.538;2022-11-15T02:54:04;14.27;;;11.33;;
18162;SDS011;9206;50.994;4.538;2022-11-15T02:56:53;17.30;;;11.60;;
18162;SDS011;9206;50.994;4.538;2022-11-15T02:59:53;13.97;;;11.60;;
18162;SDS011;9206;50.994;4.538;2022-11-15T03:02:56;13.10;;;11.50;;
18162;SDS011;9206;50.994;4.538;2022-11-15T03:05:56;16.23;;;11.93;;
18162;SDS011;9206;50.994;4.538;2022-11-15T03:08:56;17.27;;;11.63;;
18162;SDS011;9206;50.994;4.538;2022-11-15T03:11:49;16.90;;;11.90;;
18162;SDS011;9206;50.994;4.538;2022-11-15T03:14:48;14.50;;;12.17;;
18162;SDS011;9206;50.994;4.538;2022-11-15T03:17:45;19.30;;;11.27;;
18162;SDS011;9206;50.994;4.538;2022-11-15T03:20:36;15.97;;;12.07;;
18162;SDS011;9206;50.994;4.538;2022-11-15T03:23:31;15.97;;;11.27;;
18162;SDS011;9206;50.994;4.538;2022-11-15T03:26:23;12.40;;;10.83;;
18162;SDS011;9206;50.994;4.538;2022-11-15T03:29:13;12.77;;;11.47;;
18162;SDS011;9206;50.994;4.538;2022-11-15T03:32:07;15.03;;;11.93;;
18162;SDS011;9206;50.994;4.538;2022-11-15T03:35:02;14.37;;;11.10;;
18162;SDS011;9206;50.994;4.538;2022-11-15T03:37:55;11.37;;;10.07;;
18162;SDS011;9206;50.994;4.538;2022-11-15T03:40:51;13.63;;;9.90;;
18162;SDS011;9206;50.994;4.538;2022-11-15T03:43:43;10.57;;;9.63;;
18162;SDS011;9206;50.994;4.538;2022-11-15T03:46:38;14.93;;;10.57;;
18162;SDS011;9206;50.994;4.538;2022-11-15T03:49:33;13.37;;;9.53;;
18162;SDS011;9206;50.994;4.538;2022-11-15T03:52:21;11.43;;;10.30;;
18162;SDS011;9206;50.994;4.538;2022-11-15T03:55:11;10.10;;;9.00;;
18162;SDS011;9206;50.994;4.538;2022-11-15T03:58:03;11.47;;;8.70;;
18162;SDS011;9206;50.994;4.538;2022-11-15T04:01:01;8.63;;;7.77;;
18162;SDS011;9206;50.994;4.538;2022-11-15T04:03:52;8.53;;;7.80;;
18162;SDS011;9206;50.994;4.538;2022-11-15T04:06:42;7.33;;;6.77;;
18162;SDS011;9206;50.994;4.538;2022-11-15T04:09:30;7.50;;;6.60;;
18162;SDS011;9206;50.994;4.538;2022-11-15T04:12:23;10.60;;;7.13;;
18162;SDS011;9206;50.994;4.538;2022-11-15T04:15:21;9.07;;;7.60;;
18162;SDS011;9206;50.994;4.538;2022-11-15T04:18:10;6.77;;;6.03;;
18162;SDS011;9206;50.994;4.538;2022-11-15T04:21:01;8.47;;;6.60;;
18162;SDS011;9206;50.994;4.538;2022-11-15T04:24:06;10.37;;;7.67;;
18162;SDS011;9206;50.994;4.538;2022-11-15T04:27:00;8.03;;;6.70;;
18162;SDS011;9206;50.994;4.538;2022-11-15T04:29:48;9.03;;;7.03;;
18162;SDS011;9206;50.994;4.538;2022-11-15T04:32:39;7.03;;;6.43;;
18162;SDS011;9206;50.994;4.538;2022-11-15T04:35:26;6.63;;;6.07;;
18162;SDS011;9206;50.994;4.538;2022-11-15T04:38:53;9.00;;;6.13;;
18162;SDS011;9206;50.994;4.538;2022-11-15T04:41:41;6.37;;;5.97;;
18162;SDS011;9206;50.994;4.538;2022-11-15T04:44:34;7.97;;;6.07;;
18162;SDS011;9206;50.994;4.538;2022-11-15T04:47:28;8.97;;;6.63;;
18162;SDS011;9206;50.994;4.538;2022-11-15T04:50:17;7.73;;;5.73;;
18162;SDS011;9206;50.994;4.538;2022-11-15T04:53:07;6.20;;;5.60;;
18162;SDS011;9206;50.994;4.538;2022-11-15T04:55:54;14.33;;;6.53;;
18162;SDS011;9206;50.994;4.538;2022-11-15T04:58:42;6.60;;;5.73;;
18162;SDS011;9206;50.994;4.538;2022-11-15T05:01:30;7.77;;;5.63;;
18162;SDS011;9206;50.994;4.538;2022-11-15T05:04:18;6.43;;;5.33;;
18162;SDS011;9206;50.994;4.538;2022-11-15T05:07:08;8.60;;;4.77;;
18162;SDS011;9206;50.994;4.538;2022-11-15T05:13:05;6.60;;;4.90;;
18162;SDS011;9206;50.994;4.538;2022-11-15T05:15:52;9.13;;;4.73;;
18162;SDS011;9206;50.994;4.538;2022-11-15T05:18:42;13.30;;;4.87;;
18162;SDS011;9206;50.994;4.538;2022-11-15T05:21:31;5.60;;;4.37;;
18162;SDS011;9206;50.994;4.538;2022-11-15T05:24:21;6.20;;;5.23;;
18162;SDS011;9206;50.994;4.538;2022-11-15T05:27:12;4.53;;;4.13;;
18162;SDS011;9206;50.994;4.538;2022-11-15T05:30:01;5.03;;;4.60;;
18162;SDS011;9206;50.994;4.538;2022-11-15T05:32:51;8.37;;;4.07;;
18162;SDS011;9206;50.994;4.538;2022-11-15T05:35:45;6.60;;;4.47;;
18162;SDS011;9206;50.994;4.538;2022-11-15T05:38:37;9.63;;;4.40;;
18162;SDS011;9206;50.994;4.538;2022-11-15T05:41:29;7.83;;;4.40;;
18162;SDS011;9206;50.994;4.538;2022-11-15T05:44:22;5.77;;;4.60;;
18162;SDS011;9206;50.994;4.538;2022-11-15T05:47:19;5.83;;;4.37;;
18162;SDS011;9206;50.994;4.538;2022-11-15T05:50:10;4.80;;;4.30;;
18162;SDS011;9206;50.994;4.538;2022-11-15T05:53:01;5.90;;;4.20;;
18162;SDS011;9206;50.994;4.538;2022-11-15T05:55:57;6.50;;;4.93;;
18162;SDS011;9206;50.994;4.538;2022-11-15T05:58:49;6.50;;;4.87;;
18162;SDS011;9206;50.994;4.538;2022-11-15T06:01:36;11.97;;;5.37;;
18162;SDS011;9206;50.994;4.538;2022-11-15T06:04:30;5.50;;;5.10;;
18162;SDS011;9206;50.994;4.538;2022-11-15T06:07:19;8.57;;;5.40;;
18162;SDS011;9206;50.994;4.538;2022-11-15T06:10:09;6.90;;;4.63;;
18162;SDS011;9206;50.994;4.538;2022-11-15T06:12:57;7.70;;;4.63;;
18162;SDS011;9206;50.994;4.538;2022-11-15T06:15:49;11.83;;;5.00;;
18162;SDS011;9206;50.994;4.538;2022-11-15T06:18:37;5.87;;;4.13;;
18162;SDS011;9206;50.994;4.538;2022-11-15T06:21:34;8.23;;;4.60;;
18162;SDS011;9206;50.994;4.538;2022-11-15T06:24:21;4.23;;;3.83;;
18162;SDS011;9206;50.994;4.538;2022-11-15T06:27:12;5.20;;;4.07;;
18162;SDS011;9206;50.994;4.538;2022-11-15T06:30:00;3.83;;;3.53;;
18162;SDS011;9206;50.994;4.538;2022-11-15T06:32:49;6.87;;;4.20;;
18162;SDS011;9206;50.994;4.538;2022-11-15T06:35:36;5.43;;;3.80;;
18162;SDS011;9206;50.994;4.538;2022-11-15T06:38:23;5.93;;;4.17;;
18162;SDS011;9206;50.994;4.538;2022-11-15T06:41:11;10.60;;;3.90;;
18162;SDS011;9206;50.994;4.538;2022-11-15T06:43:59;7.73;;;3.97;;
18162;SDS011;9206;50.994;4.538;2022-11-15T06:46:47;7.63;;;4.07;;
18162;SDS011;9206;50.994;4.538;2022-11-15T06:49:35;8.17;;;3.90;;
18162;SDS011;9206;50.994;4.538;2022-11-15T06:52:23;7.80;;;4.30;;
18162;SDS011;9206;50.994;4.538;2022-11-15T06:55:10;9.37;;;4.20;;
18162;SDS011;9206;50.994;4.538;2022-11-15T06:57:57;7.43;;;4.47;;
18162;SDS011;9206;50.994;4.538;2022-11-15T07:00:45;4.97;;;4.03;;
18162;SDS011;9206;50.994;4.538;2022-11-15T07:03:33;7.03;;;4.37;;
18162;SDS011;9206;50.994;4.538;2022-11-15T07:06:23;8.83;;;4.27;;
18162;SDS011;9206;50.994;4.538;2022-11-15T07:09:10;4.40;;;4.00;;
18162;SDS011;9206;50.994;4.538;2022-11-15T07:11:57;5.40;;;4.47;;
18162;SDS011;9206;50.994;4.538;2022-11-15T07:14:45;5.23;;;4.73;;
18162;SDS011;9206;50.994;4.538;2022-11-15T07:17:32;10.10;;;5.03;;
18162;SDS011;9206;50.994;4.538;2022-11-15T07:20:19;6.10;;;4.40;;
18162;SDS011;9206;50.994;4.538;2022-11-15T07:23:08;5.20;;;4.33;;
18162;SDS011;9206;50.994;4.538;2022-11-15T07:25:58;6.87;;;4.67;;
18162;SDS011;9206;50.994;4.538;2022-11-15T07:28:46;10.37;;;4.67;;
18162;SDS011;9206;50.994;4.538;2022-11-15T07:31:33;7.37;;;4.00;;
18162;SDS011;9206;50.994;4.538;2022-11-15T07:34:20;4.77;;;4.07;;
18162;SDS011;9206;50.994;4.538;2022-11-15T07:37:09;6.80;;;4.40;;
18162;SDS011;9206;50.994;4.538;2022-11-15T07:39:58;5.93;;;4.67;;
18162;SDS011;9206;50.994;4.538;2022-11-15T07:42:45;8.33;;;4.57;;
18162;SDS011;9206;50.994;4.538;2022-11-15T07:45:46;7.27;;;5.00;;
18162;SDS011;9206;50.994;4.538;2022-11-15T07:48:34;4.90;;;4.50;;
18162;SDS011;9206;50.994;4.538;2022-11-15T07:51:22;4.70;;;4.37;;
18162;SDS011;9206;50.994;4.538;2022-11-15T07:54:10;7.00;;;4.43;;
18162;SDS011;9206;50.994;4.538;2022-11-15T07:56:58;7.93;;;4.57;;
18162;SDS011;9206;50.994;4.538;2022-11-15T07:59:46;8.30;;;4.57;;
18162;SDS011;9206;50.994;4.538;2022-11-15T08:02:33;6.57;;;4.27;;
18162;SDS011;9206;50.994;4.538;2022-11-15T08:05:21;5.30;;;4.30;;
18162;SDS011;9206;50.994;4.538;2022-11-15T08:08:10;4.27;;;3.97;;
18162;SDS011;9206;50.994;4.538;2022-11-15T08:10:58;4.60;;;4.20;;
18162;SDS011;9206;50.994;4.538;2022-11-15T08:13:46;10.10;;;4.50;;
18162;SDS011;9206;50.994;4.538;2022-11-15T08:16:34;3.80;;;3.50;;
18162;SDS011;9206;50.994;4.538;2022-11-15T08:19:21;4.43;;;4.03;;
18162;SDS011;9206;50.994;4.538;2022-11-15T08:22:08;4.03;;;3.30;;
18162;SDS011;9206;50.994;4.538;2022-11-15T08:24:56;3.17;;;2.97;;
18162;SDS011;9206;50.994;4.538;2022-11-15T08:27:43;4.70;;;3.57;;
18162;SDS011;9206;50.994;4.538;2022-11-15T08:30:35;3.40;;;3.10;;
18162;SDS011;9206;50.994;4.538;2022-11-15T08:33:27;4.60;;;2.67;;
18162;SDS011;9206;50.994;4.538;2022-11-15T08:36:15;5.23;;;2.97;;
18162;SDS011;9206;50.994;4.538;2022-11-15T08:39:03;5.07;;;2.97;;
18162;SDS011;9206;50.994;4.538;2022-11-15T08:41:51;4.70;;;2.50;;
18162;SDS011;9206;50.994;4.538;2022-11-15T08:44:38;3.03;;;2.47;;
18162;SDS011;9206;50.994;4.538;2022-11-15T08:47:27;4.20;;;1.90;;
18162;SDS011;9206;50.994;4.538;2022-11-15T08:50:14;3.07;;;1.97;;
18162;SDS011;9206;50.994;4.538;2022-11-15T08:53:05;5.83;;;2.13;;
18162;SDS011;9206;50.994;4.538;2022-11-15T08:55:53;3.83;;;2.00;;
18162;SDS011;9206;50.994;4.538;2022-11-15T08:58:41;4.43;;;1.90;;
18162;SDS011;9206;50.994;4.538;2022-11-15T09:01:29;3.17;;;1.80;;
18162;SDS011;9206;50.994;4.538;2022-11-15T09:04:25;8.83;;;5.60;;
18162;SDS011;9206;50.994;4.538;2022-11-15T09:07:24;2.53;;;2.33;;
18162;SDS011;9206;50.994;4.538;2022-11-15T09:10:12;5.93;;;2.20;;
18162;SDS011;9206;50.994;4.538;2022-11-15T09:13:01;4.43;;;1.60;;
18162;SDS011;9206;50.994;4.538;2022-11-15T09:15:48;1.60;;;1.33;;
18162;SDS011;9206;50.994;4.538;2022-11-15T09:18:35;8.53;;;1.87;;
18162;SDS011;9206;50.994;4.538;2022-11-15T09:21:27;7.47;;;1.73;;
18162;SDS011;9206;50.994;4.538;2022-11-15T09:24:17;4.07;;;1.15;;
18162;SDS011;9206;50.994;4.538;2022-11-15T09:27:10;3.38;;;1.55;;
18162;SDS011;9206;50.994;4.538;2022-11-15T09:29:58;4.22;;;1.50;;
18162;SDS011;9206;50.994;4.538;2022-11-15T09:32:47;3.08;;;1.50;;
18162;SDS011;9206;50.994;4.538;2022-11-15T09:35:34;3.50;;;1.50;;
18162;SDS011;9206;50.994;4.538;2022-11-15T09:38:24;3.97;;;1.67;;
18162;SDS011;9206;50.994;4.538;2022-11-15T09:44:38;2.60;;;1.50;;
18162;SDS011;9206;50.994;4.538;2022-11-15T09:47:39;4.18;;;1.48;;
18162;SDS011;9206;50.994;4.538;2022-11-15T09:50:36;5.45;;;1.65;;
18162;SDS011;9206;50.994;4.538;2022-11-15T09:53:34;4.97;;;1.50;;
18162;SDS011;9206;50.994;4.538;2022-11-15T09:56:30;5.15;;;2.92;;
18162;SDS011;9206;50.994;4.538;2022-11-15T09:59:22;3.95;;;1.35;;
18162;SDS011;9206;50.994;4.538;2022-11-15T10:02:23;2.50;;;1.42;;
18162;SDS011;9206;50.994;4.538;2022-11-15T10:05:27;8.25;;;1.52;;
18162;SDS011;9206;50.994;4.538;2022-11-15T10:08:27;5.28;;;1.20;;
18162;SDS011;9206;50.994;4.538;2022-11-15T10:11:22;3.63;;;1.77;;
18162;SDS011;9206;50.994;4.538;2022-11-15T10:14:12;2.90;;;2.15;;
18162;SDS011;9206;50.994;4.538;2022-11-15T10:17:06;2.70;;;1.30;;
18162;SDS011;9206;50.994;4.538;2022-11-15T10:20:13;5.30;;;1.63;;
18162;SDS011;9206;50.994;4.538;2022-11-15T10:23:05;2.42;;;1.63;;
18162;SDS011;9206;50.994;4.538;2022-11-15T10:25:57;2.47;;;1.02;;
18162;SDS011;9206;50.994;4.538;2022-11-15T10:28:47;2.55;;;1.50;;
18162;SDS011;9206;50.994;4.538;2022-11-15T10:31:37;5.30;;;1.60;;
18162;SDS011;9206;50.994;4.538;2022-11-15T10:34:27;3.17;;;1.33;;
18162;SDS011;9206;50.994;4.538;2022-11-15T10:37:14;1.93;;;1.60;;
18162;SDS011;9206;50.994;4.538;2022-11-15T10:40:15;4.80;;;1.30;;
18162;SDS011;9206;50.994;4.538;2022-11-15T10:43:06;3.53;;;1.37;;
18162;SDS011;9206;50.994;4.538;2022-11-15T10:46:04;2.63;;;1.43;;
18162;SDS011;9206;50.994;4.538;2022-11-15T10:49:12;1.95;;;1.35;;
18162;SDS011;9206;50.994;4.538;2022-11-15T10:52:02;2.45;;;1.15;;
18162;SDS011;9206;50.994;4.538;2022-11-15T10:55:00;4.63;;;1.88;;
18162;SDS011;9206;50.994;4.538;2022-11-15T10:57:52;2.97;;;1.20;;
18162;SDS011;9206;50.994;4.538;2022-11-15T11:00:41;3.47;;;1.40;;
18162;SDS011;9206;50.994;4.538;2022-11-15T11:03:31;3.60;;;1.57;;
18162;SDS011;9206;50.994;4.538;2022-11-15T11:06:23;5.83;;;1.30;;
18162;SDS011;9206;50.994;4.538;2022-11-15T11:09:18;5.53;;;2.13;;
18162;SDS011;9206;50.994;4.538;2022-11-15T11:12:10;4.30;;;1.50;;
18162;SDS011;9206;50.994;4.538;2022-11-15T11:14:58;1.27;;;1.17;;
18162;SDS011;9206;50.994;4.538;2022-11-15T11:17:53;1.87;;;0.90;;
18162;SDS011;9206;50.994;4.538;2022-11-15T11:20:50;4.30;;;1.40;;
18162;SDS011;9206;50.994;4.538;2022-11-15T11:23:45;2.87;;;2.00;;
18162;SDS011;9206;50.994;4.538;2022-11-15T11:26:42;4.97;;;1.50;;
18162;SDS011;9206;50.994;4.538;2022-11-15T11:29:42;1.43;;;1.33;;
18162;SDS011;9206;50.994;4.538;2022-11-15T11:32:55;1.73;;;1.20;;
18162;SDS011;9206;50.994;4.538;2022-11-15T11:35:53;5.13;;;1.57;;
18162;SDS011;9206;50.994;4.538;2022-11-15T11:38:50;2.63;;;1.47;;
18162;SDS011;9206;50.994;4.538;2022-11-15T11:41:50;3.83;;;1.43;;
18162;SDS011;9206;50.994;4.538;2022-11-15T11:44:48;4.77;;;1.60;;
18162;SDS011;9206;50.994;4.538;2022-11-15T11:47:44;1.93;;;1.10;;
18162;SDS011;9206;50.994;4.538;2022-11-15T11:50:36;4.53;;;1.60;;
18162;SDS011;9206;50.994;4.538;2022-11-15T11:56:29;3.50;;;1.60;;
18162;SDS011;9206;50.994;4.538;2022-11-15T11:59:25;7.50;;;1.60;;
18162;SDS011;9206;50.994;4.538;2022-11-15T12:02:26;4.13;;;1.70;;
18162;SDS011;9206;50.994;4.538;2022-11-15T12:05:22;6.50;;;1.40;;
18162;SDS011;9206;50.994;4.538;2022-11-15T12:08:20;13.60;;;2.83;;
18162;SDS011;9206;50.994;4.538;2022-11-15T12:11:20;4.60;;;1.77;;
18162;SDS011;9206;50.994;4.538;2022-11-15T12:14:16;5.20;;;3.00;;
18162;SDS011;9206;50.994;4.538;2022-11-15T12:17:13;3.43;;;2.07;;
18162;SDS011;9206;50.994;4.538;2022-11-15T12:20:02;11.83;;;2.27;;
18162;SDS011;9206;50.994;4.538;2022-11-15T12:22:55;11.67;;;2.07;;
18162;SDS011;9206;50.994;4.538;2022-11-15T12:25:48;4.83;;;2.00;;
18162;SDS011;9206;50.994;4.538;2022-11-15T12:28:42;2.37;;;1.77;;
18162;SDS011;9206;50.994;4.538;2022-11-15T12:31:35;7.17;;;3.73;;
18162;SDS011;9206;50.994;4.538;2022-11-15T12:34:43;5.90;;;1.43;;
18162;SDS011;9206;50.994;4.538;2022-11-15T12:44:00;5.17;;;1.40;;
18162;SDS011;9206;50.994;4.538;2022-11-15T12:47:00;4.23;;;2.10;;
18162;SDS011;9206;50.994;4.538;2022-11-15T12:49:49;3.13;;;1.60;;
18162;SDS011;9206;50.994;4.538;2022-11-15T12:52:39;3.60;;;1.40;;
18162;SDS011;9206;50.994;4.538;2022-11-15T12:56:21;2.93;;;2.73;;
18162;SDS011;9206;50.994;4.538;2022-11-15T12:59:09;4.47;;;3.10;;
18162;SDS011;9206;50.994;4.538;2022-11-15T13:01:57;4.17;;;1.90;;
18162;SDS011;9206;50.994;4.538;2022-11-15T13:04:47;2.73;;;1.87;;
18162;SDS011;9206;50.994;4.538;2022-11-15T13:10:43;3.87;;;3.10;;
18162;SDS011;9206;50.994;4.538;2022-11-15T13:13:43;6.00;;;3.17;;
18162;SDS011;9206;50.994;4.538;2022-11-15T13:16:31;5.30;;;2.80;;
18162;SDS011;9206;50.994;4.538;2022-11-15T13:19:19;3.23;;;1.53;;
18162;SDS011;9206;50.994;4.538;2022-11-15T13:22:09;5.90;;;1.70;;
18162;SDS011;9206;50.994;4.538;2022-11-15T13:25:15;4.67;;;1.60;;
18162;SDS011;9206;50.994;4.538;2022-11-15T13:28:09;1.97;;;1.10;;
18162;SDS011;9206;50.994;4.538;2022-11-15T13:34:23;4.77;;;1.20;;
18162;SDS011;9206;50.994;4.538;2022-11-15T13:37:28;1.47;;;1.20;;
18162;SDS011;9206;50.994;4.538;2022-11-15T13:40:28;2.90;;;1.20;;
18162;SDS011;9206;50.994;4.538;2022-11-15T13:43:25;4.50;;;2.23;;
18162;SDS011;9206;50.994;4.538;2022-11-15T13:46:16;4.17;;;1.40;;
18162;SDS011;9206;50.994;4.538;2022-11-15T13:49:09;4.67;;;1.63;;
18162;SDS011;9206;50.994;4.538;2022-11-15T13:51:57;5.07;;;1.40;;
18162;SDS011;9206;50.994;4.538;2022-11-15T13:54:47;1.93;;;1.83;;
18162;SDS011;9206;50.994;4.538;2022-11-15T13:57:42;1.43;;;1.33;;
18162;SDS011;9206;50.994;4.538;2022-11-15T14:00:34;1.33;;;1.23;;
18162;SDS011;9206;50.994;4.538;2022-11-15T14:03:24;3.60;;;1.30;;
18162;SDS011;9206;50.994;4.538;2022-11-15T14:06:17;2.90;;;1.30;;
18162;SDS011;9206;50.994;4.538;2022-11-15T14:09:22;2.03;;;1.60;;
18162;SDS011;9206;50.994;4.538;2022-11-15T14:12:24;4.17;;;1.23;;
18162;SDS011;9206;50.994;4.538;2022-11-15T14:15:25;1.33;;;1.23;;
18162;SDS011;9206;50.994;4.538;2022-11-15T14:21:30;1.50;;;1.23;;
18162;SDS011;9206;50.994;4.538;2022-11-15T14:24:18;4.60;;;1.70;;
18162;SDS011;9206;50.994;4.538;2022-11-15T14:27:20;1.60;;;1.50;;
18162;SDS011;9206;50.994;4.538;2022-11-15T14:30:17;1.40;;;1.30;;
18162;SDS011;9206;50.994;4.538;2022-11-15T14:33:14;2.13;;;1.30;;
18162;SDS011;9206;50.994;4.538;2022-11-15T14:36:10;1.40;;;1.30;;
18162;SDS011;9206;50.994;4.538;2022-11-15T14:38:59;2.63;;;1.40;;
18162;SDS011;9206;50.994;4.538;2022-11-15T14:41:50;2.43;;;1.27;;
18162;SDS011;9206;50.994;4.538;2022-11-15T14:44:37;1.60;;;1.50;;
18162;SDS011;9206;50.994;4.538;2022-11-15T14:47:25;2.30;;;1.73;;
18162;SDS011;9206;50.994;4.538;2022-11-15T14:50:14;2.97;;;2.77;;
18162;SDS011;9206;50.994;4.538;2022-11-15T14:53:04;2.93;;;1.70;;
18162;SDS011;9206;50.994;4.538;2022-11-15T14:55:53;2.63;;;1.53;;
18162;SDS011;9206;50.994;4.538;2022-11-15T14:58:40;4.47;;;1.57;;
18162;SDS011;9206;50.994;4.538;2022-11-15T15:01:28;2.43;;;1.60;;
18162;SDS011;9206;50.994;4.538;2022-11-15T15:04:15;4.23;;;1.53;;
18162;SDS011;9206;50.994;4.538;2022-11-15T15:07:02;1.50;;;1.40;;
18162;SDS011;9206;50.994;4.538;2022-11-15T15:09:50;2.40;;;1.60;;
18162;SDS011;9206;50.994;4.538;2022-11-15T15:12:38;5.40;;;4.93;;
18162;SDS011;9206;50.994;4.538;2022-11-15T15:15:34;4.57;;;3.70;;
18162;SDS011;9206;50.994;4.538;2022-11-15T15:18:22;3.57;;;3.37;;
18162;SDS011;9206;50.994;4.538;2022-11-15T15:21:15;2.67;;;2.57;;
18162;SDS011;9206;50.994;4.538;2022-11-15T15:24:07;1.60;;;1.50;;
18162;SDS011;9206;50.994;4.538;2022-11-15T15:27:00;1.60;;;1.50;;
18162;SDS011;9206;50.994;4.538;2022-11-15T15:29:48;1.53;;;1.43;;
18162;SDS011;9206;50.994;4.538;2022-11-15T15:32:35;2.30;;;1.97;;
18162;SDS011;9206;50.994;4.538;2022-11-15T15:35:23;1.80;;;1.40;;
18162;SDS011;9206;50.994;4.538;2022-11-15T15:38:12;1.30;;;1.20;;
18162;SDS011;9206;50.994;4.538;2022-11-15T15:41:00;2.20;;;1.70;;
18162;SDS011;9206;50.994;4.538;2022-11-15T15:43:48;1.80;;;1.70;;
18162;SDS011;9206;50.994;4.538;2022-11-15T15:46:37;5.53;;;5.07;;
18162;SDS011;9206;50.994;4.538;2022-11-15T15:49:24;3.13;;;2.30;;
18162;SDS011;9206;50.994;4.538;2022-11-15T15:52:12;4.00;;;1.73;;
18162;SDS011;9206;50.994;4.538;2022-11-15T15:54:59;2.00;;;1.90;;
18162;SDS011;9206;50.994;4.538;2022-11-15T15:57:46;1.83;;;1.73;;
18162;SDS011;9206;50.994;4.538;2022-11-15T16:00:34;1.83;;;1.67;;
18162;SDS011;9206;50.994;4.538;2022-11-15T16:03:23;2.40;;;1.60;;
18162;SDS011;9206;50.994;4.538;2022-11-15T16:06:25;2.00;;;1.90;;
18162;SDS011;9206;50.994;4.538;2022-11-15T16:09:21;2.13;;;2.03;;
18162;SDS011;9206;50.994;4.538;2022-11-15T16:12:29;3.23;;;3.03;;
18162;SDS011;9206;50.994;4.538;2022-11-15T16:15:17;3.43;;;3.10;;
18162;SDS011;9206;50.994;4.538;2022-11-15T16:18:05;2.50;;;2.40;;
18162;SDS011;9206;50.994;4.538;2022-11-15T16:20:54;2.13;;;2.03;;
18162;SDS011;9206;50.994;4.538;2022-11-15T16:23:42;2.40;;;2.20;;
18162;SDS011;9206;50.994;4.538;2022-11-15T16:26:29;3.20;;;2.23;;
18162;SDS011;9206;50.994;4.538;2022-11-15T16:29:17;2.10;;;2.00;;
18162;SDS011;9206;50.994;4.538;2022-11-15T16:32:04;2.60;;;2.40;;
18162;SDS011;9206;50.994;4.538;2022-11-15T16:34:51;2.33;;;2.13;;
18162;SDS011;9206;50.994;4.538;2022-11-15T16:37:40;2.50;;;2.30;;
18162;SDS011;9206;50.994;4.538;2022-11-15T16:40:31;2.40;;;1.97;;
18162;SDS011;9206;50.994;4.538;2022-11-15T16:43:20;4.00;;;2.13;;
18162;SDS011;9206;50.994;4.538;2022-11-15T16:46:11;2.07;;;1.97;;
18162;SDS011;9206;50.994;4.538;2022-11-15T16:49:03;3.57;;;3.13;;
18162;SDS011;9206;50.994;4.538;2022-11-15T16:51:50;3.50;;;3.20;;
18162;SDS011;9206;50.994;4.538;2022-11-15T16:54:39;2.27;;;2.17;;
18162;SDS011;9206;50.994;4.538;2022-11-15T16:57:26;4.10;;;3.80;;
18162;SDS011;9206;50.994;4.538;2022-11-15T17:00:14;4.23;;;2.50;;
18162;SDS011;9206;50.994;4.538;2022-11-15T17:03:03;4.63;;;3.17;;
18162;SDS011;9206;50.994;4.538;2022-11-15T17:05:52;3.10;;;2.90;;
18162;SDS011;9206;50.994;4.538;2022-11-15T17:08:44;3.03;;;2.83;;
18162;SDS011;9206;50.994;4.538;2022-11-15T17:11:33;2.90;;;2.70;;
18162;SDS011;9206;50.994;4.538;2022-11-15T17:14:20;2.60;;;2.50;;
18162;SDS011;9206;50.994;4.538;2022-11-15T17:17:08;3.70;;;3.00;;
18162;SDS011;9206;50.994;4.538;2022-11-15T17:19:58;4.07;;;3.50;;
18162;SDS011;9206;50.994;4.538;2022-11-15T17:22:46;2.60;;;2.50;;
18162;SDS011;9206;50.994;4.538;2022-11-15T17:25:35;3.20;;;2.90;;
18162;SDS011;9206;50.994;4.538;2022-11-15T17:28:30;2.80;;;2.60;;
18162;SDS011;9206;50.994;4.538;2022-11-15T17:31:23;4.33;;;2.70;;
18162;SDS011;9206;50.994;4.538;2022-11-15T17:34:12;2.87;;;2.47;;
18162;SDS011;9206;50.994;4.538;2022-11-15T17:36:59;2.67;;;2.53;;
18162;SDS011;9206;50.994;4.538;2022-11-15T17:42:39;2.93;;;2.73;;
18162;SDS011;9206;50.994;4.538;2022-11-15T17:45:28;3.10;;;2.90;;
18162;SDS011;9206;50.994;4.538;2022-11-15T17:48:16;5.07;;;4.57;;
18162;SDS011;9206;50.994;4.538;2022-11-15T17:51:06;4.73;;;3.67;;
18162;SDS011;9206;50.994;4.538;2022-11-15T17:53:56;4.27;;;3.50;;
18162;SDS011;9206;50.994;4.538;2022-11-15T17:56:43;4.17;;;3.80;;
18162;SDS011;9206;50.994;4.538;2022-11-15T17:59:30;4.80;;;4.40;;
18162;SDS011;9206;50.994;4.538;2022-11-15T18:02:19;3.63;;;3.33;;
18162;SDS011;9206;50.994;4.538;2022-11-15T18:05:06;2.90;;;2.70;;